createdAt,value
2022-07-25T00:00:51.287Z,74.68
2022-07-25T00:04:00.635Z,74.28
2022-07-25T00:07:16.785Z,74.51
2022-07-25T00:15:51.737Z,73.68
2022-07-25T00:18:36.771Z,74.90
2022-07-25T00:21:45.729Z,75.38
2022-07-25T00:25:04.444Z,73.96
2022-07-25T00:30:54.475Z,74.90
2022-07-25T00:33:47.504Z,75.02
2022-07-25T00:36:34.340Z,74.22
2022-07-25T00:39:49.413Z,75.03
2022-07-25T00:42:38.732Z,74.21
2022-07-25T00:45:23.827Z,74.35
2022-07-25T00:48:07.244Z,74.37
2022-07-25T00:51:22.068Z,74.05
2022-07-25T00:54:08.277Z,74.83
2022-07-25T00:57:12.049Z,76.41
2022-07-25T01:00:22.414Z,76.74
2022-07-25T01:03:16.366Z,75.26
2022-07-25T01:06:22.273Z,75.60
2022-07-25T01:15:12.077Z,75.36
2022-07-25T01:21:06.928Z,75.76
2022-07-25T01:24:09.302Z,76.94
2022-07-25T01:27:31.438Z,78.13
2022-07-25T01:30:16.377Z,75.44
2022-07-25T01:33:09.726Z,76.94
2022-07-25T01:36:08.734Z,75.80
2022-07-25T01:38:54.287Z,76.21
2022-07-25T01:41:37.468Z,76.63
2022-07-25T01:44:21.014Z,76.33
2022-07-25T01:47:24.922Z,77.08
2022-07-25T01:50:19.025Z,75.94
2022-07-25T01:53:16.530Z,75.15
2022-07-25T01:56:08.964Z,75.88
2022-07-25T01:58:48.582Z,75.91
2022-07-25T02:04:34.675Z,75.97
2022-07-25T02:10:43.102Z,76.62
2022-07-25T02:14:10.623Z,78.44
2022-07-25T02:16:58.000Z,76.02
2022-07-25T02:23:36.019Z,76.25
2022-07-25T02:26:38.033Z,76.21
2022-07-25T02:29:58.093Z,76.50
2022-07-25T02:32:57.128Z,77.00
2022-07-25T02:35:55.077Z,75.41
2022-07-25T02:38:47.935Z,75.68
2022-07-25T02:41:54.406Z,76.09
2022-07-25T02:44:56.771Z,75.75
2022-07-25T02:50:44.044Z,75.01
2022-07-25T02:56:40.088Z,74.78
2022-07-25T02:59:48.473Z,75.43
2022-07-25T03:02:51.624Z,75.51
2022-07-25T03:05:31.132Z,74.69
2022-07-25T03:11:14.300Z,74.47
2022-07-25T03:14:07.451Z,74.12
2022-07-25T03:17:13.468Z,74.75
2022-07-25T03:20:09.627Z,74.58
2022-07-25T03:22:57.427Z,74.11
2022-07-25T03:25:46.129Z,74.19
2022-07-25T03:28:31.593Z,73.79
2022-07-25T03:31:28.577Z,74.26
2022-07-25T03:34:08.067Z,73.84
2022-07-25T03:37:07.199Z,74.34
2022-07-25T03:39:48.038Z,73.89
2022-07-25T03:42:41.116Z,73.30
2022-07-25T03:45:24.558Z,73.14
2022-07-25T03:48:27.826Z,73.22
2022-07-25T03:51:21.933Z,73.28
2022-07-25T03:54:25.856Z,73.15
2022-07-25T03:57:16.686Z,72.56
2022-07-25T04:00:08.285Z,73.00
2022-07-25T04:02:51.751Z,72.16
2022-07-25T04:05:32.434Z,72.16
2022-07-25T04:08:07.579Z,72.16
2022-07-25T04:10:47.323Z,71.52
2022-07-25T04:13:36.941Z,70.24
2022-07-25T04:16:22.571Z,69.52
2022-07-25T04:19:14.248Z,68.71
2022-07-25T04:22:06.276Z,68.42
2022-07-25T04:25:11.080Z,68.27
2022-07-25T04:28:10.259Z,66.75
2022-07-25T04:33:55.457Z,66.68
2022-07-25T04:36:32.843Z,65.59
2022-07-25T04:39:14.314Z,65.53
2022-07-25T04:41:47.582Z,65.23
2022-07-25T04:44:50.323Z,65.16
2022-07-25T04:47:43.797Z,63.88
2022-07-25T04:50:33.769Z,64.17
2022-07-25T04:53:49.019Z,63.86
2022-07-25T04:56:33.504Z,64.09
2022-07-25T04:59:14.591Z,63.87
2022-07-25T05:02:20.430Z,62.48
2022-07-25T05:05:20.859Z,63.01
2022-07-25T05:08:41.767Z,62.43
2022-07-25T05:11:18.188Z,63.32
2022-07-25T05:14:25.665Z,61.84
2022-07-25T05:17:13.803Z,62.08
2022-07-25T05:20:18.362Z,62.10
2022-07-25T05:23:19.773Z,61.00
2022-07-25T05:26:05.619Z,62.34
2022-07-25T05:28:59.522Z,61.24
2022-07-25T05:34:57.826Z,59.71
2022-07-25T05:54:38.574Z,56.94
2022-07-25T06:04:54.159Z,55.55
2022-07-25T06:14:52.181Z,55.32
2022-07-25T06:17:18.966Z,56.19
2022-07-25T06:20:04.358Z,53.80
2022-07-25T06:22:33.590Z,55.75
2022-07-25T06:25:12.861Z,54.89
2022-07-25T06:27:42.837Z,53.99
2022-07-25T06:30:20.005Z,54.58
2022-07-25T06:32:55.719Z,52.38
2022-07-25T06:35:25.584Z,53.74
2022-07-25T06:38:22.195Z,51.55
2022-07-25T06:40:56.614Z,52.24
2022-07-25T06:43:27.267Z,53.79
2022-07-25T06:45:54.720Z,52.71
2022-07-25T06:48:48.433Z,52.49
2022-07-25T06:51:16.755Z,53.15
2022-07-25T06:53:46.210Z,53.38
2022-07-25T06:56:17.598Z,52.79
2022-07-25T06:58:48.574Z,51.06
2022-07-25T07:01:16.787Z,52.73
2022-07-25T07:03:44.069Z,52.46
2022-07-25T07:06:11.895Z,52.91
2022-07-25T07:08:38.759Z,51.91
2022-07-25T07:11:07.830Z,51.85
2022-07-25T07:13:38.007Z,51.82
2022-07-25T07:16:05.802Z,52.06
2022-07-25T07:18:32.719Z,51.66
2022-07-25T07:21:00.028Z,51.53
2022-07-25T07:23:30.829Z,51.26
2022-07-25T07:26:03.558Z,51.82
2022-07-25T07:28:43.496Z,51.97
2022-07-25T07:31:16.643Z,51.43
2022-07-25T07:39:51.518Z,51.31
2022-07-25T07:42:24.480Z,51.07
2022-07-25T07:44:55.287Z,50.52
2022-07-25T07:47:23.921Z,50.18
2022-07-25T07:49:55.875Z,50.06
2022-07-25T07:52:27.088Z,50.65
2022-07-25T07:55:12.408Z,49.81
2022-07-25T07:57:39.315Z,48.34
2022-07-25T08:00:14.821Z,48.21
2022-07-25T08:02:48.558Z,47.82
2022-07-25T08:05:28.644Z,46.95
2022-07-25T08:07:58.480Z,48.61
2022-07-25T08:10:28.532Z,49.09
2022-07-25T08:13:23.245Z,46.67
2022-07-25T08:15:56.261Z,47.87
2022-07-25T08:18:26.875Z,48.13
2022-07-25T08:20:57.611Z,47.02
2022-07-25T08:23:27.801Z,47.57
2022-07-25T08:25:57.991Z,46.65
2022-07-25T08:28:26.378Z,47.14
2022-07-25T08:30:56.495Z,46.99
2022-07-25T08:33:23.506Z,47.85
2022-07-25T08:35:56.474Z,45.97
2022-07-25T08:38:27.053Z,47.24
2022-07-25T08:48:07.790Z,46.18
2022-07-25T10:08:08.019Z,42.80
2022-07-25T10:10:42.769Z,42.95
2022-07-25T10:13:32.805Z,42.34
2022-07-25T10:16:06.678Z,43.65
2022-07-25T10:18:52.746Z,42.09
2022-07-25T10:21:39.412Z,41.97
2022-07-25T10:24:16.484Z,43.21
2022-07-25T10:32:10.860Z,42.03
2022-07-25T10:34:55.977Z,42.60
2022-07-25T10:37:31.709Z,42.33
2022-07-25T10:39:59.246Z,41.37
2022-07-25T10:42:33.685Z,41.58
2022-07-25T10:45:07.086Z,41.93
2022-07-25T10:47:45.636Z,43.07
2022-07-25T10:50:39.987Z,43.24
2022-07-25T10:53:21.775Z,42.26
2022-07-25T10:56:08.779Z,40.36
2022-07-25T10:59:07.802Z,39.91
2022-07-25T11:01:38.783Z,41.46
2022-07-25T11:04:24.970Z,40.88
2022-07-25T11:07:30.654Z,40.79
2022-07-25T11:10:43.530Z,39.98
2022-07-25T11:13:28.772Z,40.81
2022-07-25T11:16:03.182Z,40.92
2022-07-25T11:18:43.431Z,40.38
2022-07-25T15:26:34.346Z,53.83
2022-07-25T15:29:33.102Z,54.67
2022-07-25T15:32:12.103Z,56.30
2022-07-25T15:34:41.155Z,56.40
2022-07-25T16:04:35.866Z,64.34
2022-07-25T16:07:02.729Z,64.43
2022-07-25T16:09:35.332Z,67.49
2022-07-25T16:12:04.649Z,67.46
2022-07-25T16:14:34.824Z,67.93
2022-07-25T16:17:03.058Z,70.34
2022-07-25T16:19:30.693Z,68.91
2022-07-25T16:21:57.404Z,69.65
2022-07-25T16:24:24.720Z,71.72
2022-07-25T16:26:54.618Z,71.32
2022-07-25T16:33:17.265Z,70.95
2022-07-25T16:35:46.364Z,73.58
2022-07-25T16:38:14.953Z,72.02
2022-07-25T16:40:42.219Z,72.77
2022-07-25T16:43:08.978Z,72.57
2022-07-25T16:45:36.971Z,73.08
2022-07-25T16:48:05.915Z,74.06
2022-07-25T16:50:32.661Z,74.22
2022-07-25T16:53:01.007Z,74.63
2022-07-25T16:55:28.911Z,74.68
2022-07-25T16:58:02.504Z,74.91
2022-07-25T17:00:29.262Z,73.73
2022-07-25T17:02:59.178Z,74.88
2022-07-25T17:05:26.879Z,74.17
2022-07-25T17:07:59.487Z,74.07
2022-07-25T17:10:28.372Z,74.27
2022-07-25T17:12:56.292Z,74.14
2022-07-25T17:15:25.576Z,75.05
2022-07-25T17:17:52.729Z,75.53
2022-07-25T17:20:22.643Z,74.61
2022-07-25T17:22:52.506Z,75.09
2022-07-25T17:25:19.926Z,74.53
2022-07-25T17:27:48.819Z,74.77
2022-07-25T17:30:19.826Z,75.28
2022-07-25T17:32:47.884Z,75.57
2022-07-25T17:35:20.335Z,75.98
2022-07-25T17:37:49.925Z,75.65
2022-07-25T17:41:03.041Z,78.27
2022-07-25T17:43:38.493Z,76.36
2022-07-25T17:46:06.552Z,75.76
2022-07-25T17:48:35.036Z,75.50
2022-07-25T17:51:02.122Z,75.67
2022-07-25T17:53:28.831Z,75.56
2022-07-25T17:55:56.358Z,74.90
2022-07-25T17:58:23.288Z,73.64
2022-07-25T18:00:50.730Z,74.09
2022-07-25T18:03:18.998Z,73.86
2022-07-25T18:05:46.276Z,73.72
2022-07-25T18:08:13.994Z,74.21
2022-07-25T18:10:42.759Z,74.79
2022-07-25T18:13:09.684Z,73.98
2022-07-25T18:20:01.918Z,74.26
2022-07-25T18:22:28.720Z,74.22
2022-07-25T18:24:56.545Z,74.75
2022-07-25T18:27:23.338Z,74.20
2022-07-25T18:29:52.323Z,74.60
2022-07-25T18:32:19.279Z,74.04
2022-07-25T18:34:46.674Z,74.53
2022-07-25T18:37:13.506Z,74.42
2022-07-25T18:39:44.593Z,74.66
2022-07-25T18:42:12.406Z,74.97
2022-07-25T18:44:40.815Z,74.92
2022-07-25T18:47:07.746Z,74.88
2022-07-25T18:49:35.927Z,74.77
2022-07-25T18:52:02.887Z,74.76
2022-07-25T18:54:31.895Z,75.14
2022-07-25T18:56:58.654Z,75.05
2022-07-25T18:59:30.135Z,76.08
2022-07-25T19:01:59.098Z,75.54
2022-07-25T19:04:26.490Z,75.68
2022-07-25T19:06:56.968Z,75.55
2022-07-25T19:09:25.927Z,75.74
2022-07-25T19:11:54.301Z,75.65
2022-07-25T19:14:24.080Z,75.62
2022-07-25T19:16:51.271Z,75.42
2022-07-25T19:19:18.238Z,75.46
2022-07-25T19:21:46.151Z,75.71
2022-07-25T19:24:13.098Z,75.56
2022-07-25T19:26:47.867Z,75.78
2022-07-25T19:29:16.730Z,75.46
2022-07-25T19:31:46.077Z,75.23
2022-07-25T19:34:13.933Z,75.02
2022-07-25T19:36:45.878Z,75.29
2022-07-25T19:39:13.215Z,74.77
2022-07-25T19:41:46.616Z,74.72
2022-07-25T19:44:16.902Z,74.69
2022-07-25T19:46:45.212Z,74.55
2022-07-25T19:49:13.054Z,74.32
2022-07-25T19:51:42.932Z,74.79
2022-07-25T19:54:11.260Z,74.74
2022-07-25T19:56:42.533Z,75.61
2022-07-25T19:59:10.740Z,75.04
2022-07-25T20:01:39.657Z,74.68
2022-07-25T20:04:09.068Z,74.71
2022-07-25T20:06:36.865Z,74.52
2022-07-25T20:09:06.045Z,74.66
2022-07-25T20:11:33.255Z,74.71
2022-07-25T20:14:05.320Z,75.59
2022-07-25T20:16:38.596Z,75.42
2022-07-25T20:19:09.314Z,75.39
2022-07-25T20:21:40.706Z,75.60
2022-07-25T20:24:10.727Z,74.86
2022-07-25T20:26:39.517Z,75.26
2022-07-25T20:29:07.969Z,75.43
2022-07-25T20:31:39.335Z,75.41
2022-07-25T20:34:06.283Z,75.48
2022-07-25T20:36:37.911Z,75.98
2022-07-25T20:39:05.767Z,75.66
2022-07-25T20:41:34.072Z,75.63
2022-07-25T20:44:02.871Z,75.93
2022-07-25T20:46:30.058Z,75.64
2022-07-25T20:48:57.731Z,76.24
2022-07-25T20:51:25.943Z,76.30
2022-07-25T20:53:53.680Z,76.17
2022-07-25T20:56:21.840Z,76.15
2022-07-25T20:58:48.547Z,76.22
2022-07-25T21:01:18.361Z,78.27
2022-07-25T21:03:45.491Z,76.09
2022-07-25T21:06:13.821Z,76.01
2022-07-25T21:08:42.880Z,76.57
2022-07-25T21:11:16.779Z,77.56
2022-07-25T21:13:46.068Z,76.80
2022-07-25T21:16:13.121Z,76.95
2022-07-25T21:18:43.153Z,77.32
2022-07-25T21:21:12.382Z,76.76
2022-07-25T21:23:44.858Z,76.92
2022-07-25T21:26:13.291Z,76.83
2022-07-25T21:28:40.523Z,77.25
2022-07-25T21:31:11.592Z,77.97
2022-07-25T21:33:38.593Z,77.23
2022-07-25T21:36:06.577Z,77.85
2022-07-25T21:38:34.935Z,77.75
2022-07-25T21:41:01.969Z,78.07
2022-07-25T21:43:35.382Z,77.67
2022-07-25T21:46:04.416Z,77.50
2022-07-25T21:48:51.863Z,77.75
2022-07-25T21:51:23.589Z,77.67
2022-07-25T21:53:57.167Z,78.40
2022-07-25T21:56:23.819Z,78.79
2022-07-25T21:59:15.769Z,80.94
2022-07-25T22:01:46.583Z,78.94
2022-07-25T22:04:13.367Z,79.18
2022-07-25T22:06:47.637Z,79.38
2022-07-25T22:09:16.060Z,79.04
2022-07-25T22:11:46.097Z,79.36
2022-07-25T22:14:15.192Z,78.78
2022-07-25T22:16:43.649Z,79.53
2022-07-25T22:19:16.624Z,80.00
2022-07-25T22:21:46.183Z,79.96
2022-07-25T22:24:13.894Z,80.68
2022-07-25T22:26:48.722Z,81.71
2022-07-25T22:29:17.719Z,80.87
2022-07-25T22:31:44.986Z,81.53
2022-07-25T22:34:11.725Z,80.96
2022-07-25T22:36:45.558Z,84.31
2022-07-25T22:39:12.752Z,81.06
2022-07-25T22:41:40.684Z,81.05
2022-07-25T22:44:11.064Z,81.40
2022-07-25T22:46:38.031Z,81.46
2022-07-25T22:49:05.209Z,84.06
2022-07-25T22:51:32.338Z,80.35
2022-07-25T22:54:01.299Z,84.00
2022-07-25T22:56:29.442Z,80.82
2022-07-25T22:58:58.377Z,81.41
2022-07-25T23:01:27.632Z,81.23
2022-07-25T23:03:54.835Z,81.19
2022-07-25T23:06:22.858Z,81.46
2022-07-25T23:08:51.114Z,81.98
2022-07-25T23:11:19.503Z,81.53
2022-07-25T23:13:49.766Z,81.85
2022-07-25T23:16:17.574Z,82.12
2022-07-25T23:18:46.448Z,82.07
2022-07-25T23:21:13.311Z,81.96
2022-07-25T23:23:42.890Z,82.35
2022-07-25T23:26:16.154Z,82.37
2022-07-25T23:28:43.578Z,81.91
2022-07-25T23:31:10.698Z,82.81
2022-07-25T23:33:37.467Z,82.64
2022-07-25T23:36:06.041Z,85.76
2022-07-25T23:38:32.739Z,82.54
2022-07-25T23:41:00.624Z,85.77
2022-07-25T23:43:55.765Z,83.38
2022-07-25T23:46:27.981Z,83.49
2022-07-25T23:48:58.190Z,82.62
2022-07-25T23:51:26.996Z,82.86
2022-07-25T23:53:57.921Z,82.83
2022-07-25T23:56:25.096Z,82.71
2022-07-25T23:58:55.316Z,82.40
